Time;durP1;ratioP1;P1;durP2;ratioP2;P2;SDS_P1;SDS_P2;PMS_P1;PMS_P2;Temp;Humidity;BMP_temperature;BMP_pressure;BME280_temperature;BME280_humidity;BME280_pressure;Samples;Min_cycle;Max_cycle;Signal;HPM_P1;HPM_P2
2022/08/18 00:02:54;;;;;;;22.37;17.37;;;;;;;18.89;98.26;98705.75;4238176;82;21479;-82
2022/08/18 00:09:03;;;;;;;56.42;20.50;;;;;;;18.80;98.64;98706.36;4243519;82;21035;-82
2022/08/18 00:15:09;;;;;;;24.25;20.20;;;;;;;18.71;98.76;98711.75;4231370;82;21003;-82
2022/08/18 00:21:10;;;;;;;19.92;17.82;;;;;;;18.64;99.14;98707.16;4216219;83;21171;-82
2022/08/18 00:27:11;;;;;;;23.38;18.07;;;;;;;18.56;99.67;98707.77;4217793;83;21002;-82
2022/08/18 00:33:12;;;;;;;21.07;17.75;;;;;;;18.67;100.00;98704.91;4268833;82;21686;-85
2022/08/18 00:39:14;;;;;;;21.87;17.98;;;;;;;18.67;100.00;98716.59;4215128;83;21054;-83
2022/08/18 00:45:20;;;;;;;23.30;18.55;;;;;;;18.66;100.00;98719.20;4266540;81;21526;-81
2022/08/18 00:51:35;;;;;;;21.87;19.52;;;;;;;18.58;100.00;98708.91;4252696;82;20999;-82
2022/08/18 00:57:37;;;;;;;24.98;20.45;;;;;;;18.42;100.00;98704.75;4265923;82;20987;-81
2022/08/18 01:03:42;;;;;;;23.42;20.20;;;;;;;18.27;100.00;98709.07;4242402;82;21312;-83
2022/08/18 01:09:43;;;;;;;18.95;16.95;;;;;;;18.24;100.00;98698.85;4256448;82;21054;-82
2022/08/18 01:15:45;;;;;;;20.75;18.32;;;;;;;18.14;100.00;98693.55;4256216;82;20983;-81
2022/08/18 01:21:50;;;;;;;24.50;19.27;;;;;;;18.04;100.00;98695.36;4216271;83;21064;-81
2022/08/18 01:27:55;;;;;;;21.75;18.98;;;;;;;17.98;100.00;98684.63;4247591;82;21581;-82
2022/08/18 01:33:56;;;;;;;25.55;20.02;;;;;;;17.98;100.00;98692.93;4245386;82;21027;-82
2022/08/18 01:39:57;;;;;;;23.22;16.82;;;;;;;18.04;100.00;98686.28;4233502;82;21036;-82
2022/08/18 01:46:00;;;;;;;26.37;17.60;;;;;;;17.94;100.00;98683.15;4244822;81;21885;-85
2022/08/18 01:52:03;;;;;;;18.65;16.50;;;;;;;17.94;100.00;98695.02;4231437;82;21071;-81
2022/08/18 01:58:06;;;;;;;25.70;20.35;;;;;;;18.00;100.00;98687.75;4245954;82;21030;-82
2022/08/18 02:04:11;;;;;;;22.58;19.02;;;;;;;17.91;100.00;98682.63;4265660;82;20992;-81
2022/08/18 02:10:13;;;;;;;25.17;20.52;;;;;;;17.80;100.00;98684.27;4246813;82;20987;-81
2022/08/18 02:16:15;;;;;;;20.80;18.70;;;;;;;17.66;100.00;98684.58;4254890;82;20976;-85
2022/08/18 02:22:19;;;;;;;22.30;19.98;;;;;;;17.57;100.00;98678.07;4251190;82;21082;-81
2022/08/18 02:28:20;;;;;;;23.05;19.92;;;;;;;17.41;100.00;98660.00;4226125;83;21103;-82
2022/08/18 02:34:22;;;;;;;22.27;18.98;;;;;;;17.32;100.00;98661.95;4259451;82;21079;-81
2022/08/18 02:40:23;;;;;;;21.50;18.77;;;;;;;17.36;100.00;98662.67;4255340;82;21924;-82
2022/08/18 02:46:26;;;;;;;21.50;19.20;;;;;;;17.45;100.00;98665.66;4253992;82;21061;-81
2022/08/18 02:52:33;;;;;;;24.32;20.27;;;;;;;17.43;100.00;98658.98;4249942;82;21012;-81
2022/08/18 02:58:34;;;;;;;26.25;20.15;;;;;;;17.32;100.00;98654.27;4223712;83;21005;-82
2022/08/18 03:04:35;;;;;;;21.95;19.60;;;;;;;17.20;100.00;98649.56;4226246;83;21006;-82
2022/08/18 03:10:37;;;;;;;23.02;17.15;;;;;;;17.12;100.00;98655.66;4225624;83;21022;-81
2022/08/18 03:16:46;;;;;;;21.90;17.48;;;;;;;17.24;100.00;98667.48;4243166;82;21117;-82
2022/08/18 03:22:48;;;;;;;23.27;18.92;;;;;;;17.42;100.00;98678.16;4250452;82;21043;-81
2022/08/18 03:28:53;;;;;;;20.90;18.67;;;;;;;17.46;100.00;98692.73;4238616;82;21845;-82
2022/08/18 03:34:54;;;;;;;25.82;19.62;;;;;;;17.46;100.00;98688.59;4194223;83;21060;-81
2022/08/18 03:40:55;;;;;;;25.20;17.92;;;;;;;17.30;100.00;98689.87;4244773;81;21039;-82
2022/08/18 03:46:59;;;;;;;20.92;18.65;;;;;;;17.20;100.00;98687.50;4224142;83;21022;-82
2022/08/18 03:53:03;;;;;;;22.40;19.73;;;;;;;17.12;100.00;98690.23;4209872;82;20999;-81
2022/08/18 03:59:15;;;;;;;22.15;19.73;;;;;;;16.98;100.00;98701.56;4217255;83;21107;-81
2022/08/18 04:05:17;;;;;;;22.30;19.62;;;;;;;16.86;100.00;98704.38;4221493;83;20984;-81
2022/08/18 04:11:19;;;;;;;24.82;19.45;;;;;;;16.86;100.00;98714.05;4249252;82;21019;-81
2022/08/18 04:17:24;;;;;;;26.07;19.80;;;;;;;16.79;100.00;98716.14;4238942;82;21004;-81
2022/08/18 04:23:25;;;;;;;20.00;17.35;;;;;;;16.85;100.00;98724.91;4260502;82;21031;-82
2022/08/18 04:29:27;;;;;;;20.52;18.23;;;;;;;17.09;100.00;98731.97;4271848;81;21072;-81
2022/08/18 04:35:30;;;;;;;19.35;17.35;;;;;;;17.23;100.00;98734.46;4373944;80;21075;-81
2022/08/18 04:41:31;;;;;;;22.82;19.23;;;;;;;17.23;100.00;98732.91;4367838;80;21782;-81
2022/08/18 04:47:33;;;;;;;23.50;19.07;;;;;;;17.21;100.00;98727.80;4285433;82;20999;-81
2022/08/18 04:53:44;;;;;;;22.80;18.55;;;;;;;17.27;100.00;98739.14;4283014;82;21427;-81
2022/08/18 04:59:49;;;;;;;23.30;20.35;;;;;;;17.40;100.00;98740.84;4364709;80;21050;-84
2022/08/18 05:05:50;;;;;;;22.52;20.10;;;;;;;17.59;100.00;98744.23;4276747;82;21039;-81
2022/08/18 05:11:51;;;;;;;25.57;21.60;;;;;;;17.76;100.00;98740.92;4267087;82;21006;-81
2022/08/18 05:17:53;;;;;;;26.35;21.30;;;;;;;17.87;100.00;98738.70;4371234;80;21011;-81
2022/08/18 05:23:54;;;;;;;29.42;22.52;;;;;;;18.01;100.00;98749.47;4365534;80;20987;-81
2022/08/18 05:29:55;;;;;;;31.57;27.10;;;;;;;18.16;100.00;98743.17;4359047;80;21049;-81
2022/08/18 05:36:04;;;;;;;33.92;27.90;;;;;;;18.30;100.00;98741.45;4360248;80;21506;-81
2022/08/18 05:42:16;;;;;;;35.17;28.65;;;;;;;18.44;100.00;98752.22;4362264;80;21090;-82
2022/08/18 05:48:17;;;;;;;31.55;28.02;;;;;;;18.63;100.00;98757.50;4360883;80;21067;-82
2022/08/18 06:00:52;;;;;;;32.98;28.10;;;;;;;19.05;100.00;98736.20;4272307;82;21861;-81
2022/08/18 06:06:56;;;;;;;33.15;27.55;;;;;;;19.28;100.00;98735.37;4269768;82;20999;-82
2022/08/18 06:13:00;;;;;;;30.85;25.55;;;;;;;19.61;100.00;98733.25;4270089;82;21038;-83
2022/08/18 06:19:40;;;;;;;26.48;22.37;;;;;;;19.97;100.00;98729.58;4370755;80;21003;-82
2022/08/18 06:26:05;;;;;;;32.17;24.25;;;;;;;20.32;100.00;98736.05;4357463;80;21078;-82
2022/08/18 06:32:27;;;;;;;23.20;20.85;;;;;;;20.67;100.00;98748.81;4360952;80;20983;-85
2022/08/18 06:38:39;;;;;;;25.70;22.30;;;;;;;21.02;100.00;98744.84;4366860;80;21046;-82
2022/08/18 06:44:51;;;;;;;21.02;18.82;;;;;;;21.29;100.00;98748.65;4265546;82;21034;-82
2022/08/18 06:50:59;;;;;;;23.70;18.52;;;;;;;21.57;100.00;98751.80;4368258;80;21829;-82
2022/08/18 06:57:02;;;;;;;19.27;17.10;;;;;;;21.89;100.00;98760.38;4359686;80;21016;-84
2022/08/18 07:03:09;;;;;;;19.90;17.37;;;;;;;22.16;100.00;98777.86;4368308;80;21032;-82
2022/08/18 07:09:22;;;;;;;21.70;16.80;;;;;;;22.33;100.00;98779.18;4353492;80;21034;-83
2022/08/18 07:15:24;;;;;;;19.52;17.50;;;;;;;22.54;100.00;98774.94;4257461;82;21039;-84
2022/08/18 07:21:30;;;;;;;19.98;16.50;;;;;;;22.78;100.00;98775.95;4372110;80;20990;-83
2022/08/18 07:27:51;;;;;;;18.27;16.12;;;;;;;23.04;100.00;98768.86;4260891;82;21054;-83
2022/08/18 07:33:59;;;;;;;21.40;15.60;;;;;;;23.29;100.00;98769.20;4256876;82;21023;-82
2022/08/18 07:40:25;;;;;;;16.65;14.15;;;;;;;23.55;100.00;98769.67;4210274;83;21036;-84
2022/08/18 07:46:46;;;;;;;16.73;13.72;;;;;;;23.82;100.00;98759.86;4235597;82;20998;-83
2022/08/18 07:53:08;;;;;;;15.15;13.58;;;;;;;24.18;100.00;98747.20;4249153;82;20995;-84
2022/08/18 07:59:39;;;;;;;17.02;12.78;;;;;;;25.11;100.00;98735.16;4233990;82;22207;-84
2022/08/18 08:05:52;;;;;;;17.77;12.63;;;;;;;25.11;100.00;98735.16;4195442;83;21066;-83
2022/08/18 08:12:32;;;;;;;16.23;12.55;;;;;;;25.52;99.20;98711.19;4257203;82;21042;-85
2022/08/18 08:18:57;;;;;;;18.37;12.45;;;;;;;25.98;97.22;98735.31;4008568;87;21057;-84
2022/08/18 08:25:13;;;;;;;17.62;11.80;;;;;;;26.12;93.80;98729.70;4358933;80;21037;-84
2022/08/18 08:31:44;;;;;;;15.37;11.60;;;;;;;26.41;93.83;98731.69;4340301;80;21540;-83
2022/08/18 08:38:06;;;;;;;16.62;10.43;;;;;;;26.65;92.83;98732.33;4247778;82;21603;-85
2022/08/18 08:44:20;;;;;;;13.78;10.68;;;;;;;26.78;90.92;98732.75;4138943;84;20990;-84
2022/08/18 08:50:26;;;;;;;13.00;10.55;;;;;;;26.95;89.50;98746.38;4186736;84;21512;-86
2022/08/18 08:56:32;;;;;;;12.30;9.55;;;;;;;27.15;87.84;98746.40;4191481;82;21054;-84
2022/08/18 09:03:15;;;;;;;11.03;9.93;;;;;;;27.37;86.13;98759.97;4241559;82;20979;-83
2022/08/18 10:27:33;;;;;;;10.20;7.75;;;;;;;32.52;63.88;98734.78;4398047;78;28633;-84
2022/08/18 10:34:08;;;;;;;8.13;6.73;;;;;;;33.14;52.92;98737.20;4357086;80;21024;-82
2022/08/18 10:40:19;;;;;;;10.93;7.05;;;;;;;33.30;57.98;98742.55;4352701;80;21019;-84
2022/08/18 10:46:25;;;;;;;8.53;6.50;;;;;;;33.65;57.78;98737.34;4352492;80;20987;-85
2022/08/18 10:52:55;;;;;;;13.40;7.62;;;;;;;33.54;56.98;98719.05;4357231;80;21055;-84
2022/08/18 10:59:27;;;;;;;8.53;6.55;;;;;;;33.47;50.86;98715.42;4352315;80;21102;-84
2022/08/18 11:05:29;;;;;;;7.72;6.65;;;;;;;32.96;53.92;98715.91;4333131;80;21022;-87
2022/08/18 11:11:42;;;;;;;7.72;6.25;;;;;;;33.05;53.66;98716.95;4355527;80;20967;-86
2022/08/18 11:18:27;;;;;;;8.25;6.65;;;;;;;33.38;53.24;98700.28;4325720;80;20990;-87
2022/08/18 11:24:31;;;;;;;7.40;6.70;;;;;;;33.43;52.52;98703.59;4350596;80;21082;-87
2022/08/18 11:30:36;;;;;;;9.33;6.87;;;;;;;33.57;52.58;98694.62;4357172;80;20976;-85
2022/08/18 11:36:37;;;;;;;10.28;6.62;;;;;;;33.79;52.38;98690.67;4354427;80;20994;-85
2022/08/18 11:42:44;;;;;;;9.75;6.50;;;;;;;33.63;52.08;98678.27;4351142;80;21035;-87
2022/08/18 11:48:49;;;;;;;9.03;6.67;;;;;;;33.38;51.28;98673.97;4336516;80;20999;-86
2022/08/18 11:54:51;;;;;;;6.97;6.28;;;;;;;33.02;51.12;98663.52;4344736;80;21082;-85
2022/08/18 12:00:56;;;;;;;7.60;6.72;;;;;;;32.56;48.33;98670.86;4347773;80;20983;-84
2022/08/18 12:07:04;;;;;;;;;;;;;;;32.10;50.86;98666.02;4355861;80;21019;-86
2022/08/18 12:13:22;;;;;;;11.38;7.28;;;;;;;31.79;51.23;98655.31;4346464;80;20129;-88
2022/08/18 12:19:32;;;;;;;18.65;7.03;;;;;;;31.46;51.64;98644.91;4349671;80;21574;-87
2022/08/18 12:25:33;;;;;;;6.85;6.15;;;;;;;31.32;51.08;98631.22;4366423;80;21041;-87
2022/08/18 12:31:35;;;;;;;9.80;6.37;;;;;;;31.03;52.02;98623.41;4354444;80;20975;-87
2022/08/18 12:37:39;;;;;;;9.48;6.25;;;;;;;30.87;51.95;98619.27;4371268;80;21066;-87
2022/08/18 12:43:41;;;;;;;10.70;6.80;;;;;;;30.59;53.12;98608.05;4364385;80;21039;-86
2022/08/18 12:49:42;;;;;;;8.18;6.95;;;;;;;30.47;53.55;98600.28;4368940;80;20995;-88
2022/08/18 12:55:44;;;;;;;8.85;7.05;;;;;;;30.32;53.65;98599.80;4377206;80;21003;-85
2022/08/18 13:01:46;;;;;;;8.73;6.83;;;;;;;30.14;53.56;98607.39;4371176;80;21047;-87
2022/08/18 13:07:47;;;;;;;11.50;6.78;;;;;;;29.99;53.90;98604.06;4370043;80;22049;-87
2022/08/18 13:13:55;;;;;;;8.95;6.42;;;;;;;29.82;53.80;98601.16;4367266;80;21019;-86
2022/08/18 13:19:53;;;;;;;11.55;6.05;;;;;;;29.73;54.81;98602.18;4368804;80;20999;-86
2022/08/18 13:25:58;;;;;;;10.68;5.85;;;;;;;29.66;55.38;98609.73;4355616;80;21003;-87
2022/08/18 13:31:59;;;;;;;8.58;6.53;;;;;;;29.66;55.61;98611.80;4354880;80;21459;-87
2022/08/18 13:38:01;;;;;;;9.40;6.58;;;;;;;29.59;55.68;98609.45;4352850;80;21673;-84
2022/08/18 13:44:03;;;;;;;8.40;6.85;;;;;;;29.65;52.26;98618.08;4355321;80;21694;-85
2022/08/18 13:50:05;;;;;;;8.88;7.05;;;;;;;29.52;54.98;98619.84;4270727;81;21055;-87
2022/08/18 13:56:10;;;;;;;8.90;6.60;;;;;;;29.39;54.63;98622.39;4231309;83;21199;-86
2022/08/18 14:02:11;;;;;;;8.40;6.65;;;;;;;29.32;55.55;98634.94;4228358;83;21890;-85
2022/08/18 14:08:13;;;;;;;11.05;6.90;;;;;;;29.19;55.61;98628.25;4227905;83;21044;-87
2022/08/18 14:14:16;;;;;;;9.15;7.25;;;;;;;29.12;55.77;98635.78;4218891;83;20967;-85
2022/08/18 14:26:47;;;;;;;7.35;6.65;;;;;;;29.13;55.86;98650.02;4224287;82;21547;-88
2022/08/18 14:32:48;;;;;;;7.95;6.85;;;;;;;29.07;55.26;98636.56;4255094;82;21075;-85
2022/08/18 14:38:51;;;;;;;8.48;6.85;;;;;;;28.96;56.07;98640.06;4256833;82;21679;-84
2022/08/18 14:44:53;;;;;;;10.72;6.97;;;;;;;28.92;55.21;98626.88;4254653;82;21531;-85
2022/08/18 14:50:57;;;;;;;9.50;6.75;;;;;;;28.82;56.49;98624.91;4246652;82;21062;-87
2022/08/18 14:57:00;;;;;;;9.05;6.95;;;;;;;28.73;56.88;98607.47;4252316;82;21058;-84
2022/08/18 15:03:05;;;;;;;6.90;6.20;;;;;;;28.66;57.05;98608.72;4251948;82;21015;-85
2022/08/18 15:09:06;;;;;;;7.17;6.47;;;;;;;28.60;57.24;98616.38;4254217;82;21055;-85
2022/08/18 15:15:12;;;;;;;8.15;6.70;;;;;;;28.57;57.21;98606.13;4263638;82;21549;-85
2022/08/18 15:27:38;;;;;;;9.75;6.40;;;;;;;28.52;57.36;98606.11;4231553;82;21054;-86
2022/08/18 15:33:39;;;;;;;11.70;9.20;;;;;;;28.47;56.88;98606.20;4195084;83;21101;-85
2022/08/18 15:39:41;;;;;;;9.33;6.55;;;;;;;28.44;56.90;98605.77;4221517;83;20995;-86
2022/08/18 15:45:46;;;;;;;9.00;6.58;;;;;;;28.36;57.91;98612.39;4215261;83;21050;-86
2022/08/18 15:51:46;;;;;;;11.22;7.50;;;;;;;28.27;58.09;98612.61;4191815;83;20967;-88
2022/08/18 15:57:48;;;;;;;9.53;7.10;;;;;;;28.17;58.23;98614.86;4200800;83;21502;-86
2022/08/18 16:03:54;;;;;;;9.55;6.80;;;;;;;28.09;57.69;98613.00;4223622;81;21041;-86
2022/08/18 16:09:55;;;;;;;9.95;6.70;;;;;;;28.02;57.82;98612.83;4219343;83;21034;-86
2022/08/18 16:15:56;;;;;;;7.92;6.22;;;;;;;27.94;58.49;98608.93;4197921;83;21034;-85
2022/08/18 16:21:58;;;;;;;8.25;7.00;;;;;;;27.85;58.83;98609.72;4200581;83;21134;-87
2022/08/18 16:28:00;;;;;;;9.48;7.10;;;;;;;27.75;59.06;98597.92;4199324;83;21102;-85
2022/08/18 16:34:04;;;;;;;9.78;6.87;;;;;;;27.63;59.52;98594.11;4201984;83;21482;-88
2022/08/18 16:40:07;;;;;;;11.20;6.33;;;;;;;27.49;60.10;98588.12;4203252;83;21050;-86
2022/08/18 16:46:15;;;;;;;8.40;6.97;;;;;;;27.34;60.26;98591.67;4198363;83;21417;-86
2022/08/18 16:52:18;;;;;;;8.63;7.20;;;;;;;27.18;60.89;98602.73;4206122;83;21611;-86
2022/08/18 17:04:39;;;;;;;8.30;5.95;;;;;;;26.95;61.54;98612.21;4071854;83;10000271;-86
2022/08/18 17:10:42;;;;;;;9.53;6.37;;;;;;;26.81;61.92;98605.40;4201601;83;20987;-86
2022/08/18 17:16:45;;;;;;;10.05;6.65;;;;;;;26.65;62.37;98586.97;4199064;83;20971;-86
2022/08/18 17:22:46;;;;;;;11.63;6.97;;;;;;;26.49;62.92;98588.91;4261779;82;21995;-85
2022/08/18 17:28:52;;;;;;;11.00;6.85;;;;;;;26.32;63.48;98574.67;4264999;81;21487;-86
2022/08/18 17:35:02;;;;;;;8.38;6.58;;;;;;;26.11;64.15;98569.67;4204236;83;21093;-85
2022/08/18 17:41:05;;;;;;;9.38;6.92;;;;;;;25.91;64.75;98567.44;4220944;83;21000;-86
2022/08/18 17:47:10;;;;;;;9.35;6.97;;;;;;;25.66;65.46;98586.30;4221972;83;20995;-85
2022/08/18 17:53:13;;;;;;;8.37;7.27;;;;;;;25.66;65.46;98586.30;4197948;83;20983;-86
2022/08/18 17:59:35;;;;;;;9.30;7.17;;;;;;;25.48;66.09;98583.08;4187926;83;21075;-85
2022/08/18 18:05:45;;;;;;;10.08;7.60;;;;;;;25.31;66.65;98598.81;4223119;83;20988;-85
2022/08/18 18:11:47;;;;;;;9.78;7.70;;;;;;;25.18;67.76;98623.55;4229051;83;21071;-86
2022/08/18 18:17:48;;;;;;;9.65;7.62;;;;;;;24.92;68.21;98607.78;4216706;83;21004;-85
2022/08/18 18:24:10;;;;;;;11.12;7.75;;;;;;;24.52;69.86;98639.75;4222965;83;21015;-85
2022/08/18 18:30:22;;;;;;;11.28;7.50;;;;;;;24.52;69.86;98639.75;4254054;82;20972;-85
2022/08/18 18:36:39;;;;;;;11.03;8.28;;;;;;;24.33;70.43;98643.94;4216366;83;21010;-84
2022/08/18 18:42:43;;;;;;;13.75;8.20;;;;;;;24.12;71.45;98640.78;4213931;83;20979;-85
2022/08/18 18:49:17;;;;;;;15.98;8.90;;;;;;;23.89;71.86;98647.09;4218746;83;21137;-85
2022/08/18 18:55:25;;;;;;;11.22;7.87;;;;;;;23.74;72.31;98637.81;4190184;83;21059;-85
2022/08/18 19:01:38;;;;;;;11.18;8.55;;;;;;;23.55;73.48;98632.16;4196784;83;21004;-85
2022/08/18 19:07:48;;;;;;;12.53;8.83;;;;;;;23.35;73.57;98631.13;4194182;83;21003;-85
2022/08/18 19:13:55;;;;;;;11.28;8.50;;;;;;;23.16;73.85;98626.17;4198886;83;20959;-85
2022/08/18 19:20:25;;;;;;;11.95;8.93;;;;;;;22.99;74.52;98620.77;4189847;83;21983;-85
2022/08/18 19:26:32;;;;;;;10.70;8.68;;;;;;;22.85;74.80;98614.39;4193377;83;21036;-84
2022/08/18 19:32:41;;;;;;;17.02;9.93;;;;;;;22.73;75.31;98602.77;4252729;82;21003;-84
2022/08/18 19:39:06;;;;;;;12.63;9.03;;;;;;;22.64;75.82;98588.22;4248284;81;21408;-85
2022/08/18 19:45:38;;;;;;;14.23;9.43;;;;;;;22.48;76.37;98569.58;4247089;82;20982;-85
2022/08/18 19:51:41;;;;;;;12.50;9.23;;;;;;;22.41;77.05;98565.08;4218957;82;21070;-84
2022/08/18 19:58:14;;;;;;;13.65;9.28;;;;;;;22.25;77.19;98552.84;4252938;82;21970;-85
2022/08/18 20:04:42;;;;;;;13.62;9.58;;;;;;;22.23;77.44;98544.77;4255988;82;21512;-85
2022/08/18 20:11:07;;;;;;;14.03;9.90;;;;;;;22.12;77.89;98537.48;4255334;82;21025;-85
2022/08/18 20:17:21;;;;;;;13.15;10.18;;;;;;;22.03;77.93;98533.30;4243395;82;20955;-84
2022/08/18 20:23:37;;;;;;;17.05;10.70;;;;;;;22.09;78.28;98541.20;4246573;82;21067;-85
2022/08/18 20:29:43;;;;;;;19.50;11.10;;;;;;;22.14;78.43;98541.98;4244407;82;21042;-84
2022/08/18 20:36:13;;;;;;;14.10;10.05;;;;;;;22.16;78.74;98552.06;4240845;82;21037;-84
2022/08/18 20:42:26;;;;;;;13.00;9.20;;;;;;;22.16;78.85;98547.24;4240394;82;21047;-84
2022/08/18 20:49:05;;;;;;;12.88;9.63;;;;;;;22.12;78.93;98538.88;4242584;82;21003;-85
2022/08/18 20:55:44;;;;;;;17.32;12.13;;;;;;;22.01;79.22;98539.33;4199088;82;21599;-84
2022/08/18 21:02:01;;;;;;;14.55;11.83;;;;;;;21.96;79.65;98558.05;4243416;82;22151;-84
2022/08/18 21:08:18;;;;;;;12.58;9.95;;;;;;;21.84;80.02;98562.36;4241662;82;21647;-84
2022/08/18 21:14:29;;;;;;;18.40;10.68;;;;;;;21.72;80.48;98562.62;4245919;82;22054;-84
2022/08/18 21:20:34;;;;;;;14.70;11.90;;;;;;;21.62;80.74;98543.70;4231667;82;21035;-84
2022/08/18 21:26:39;;;;;;;14.18;10.55;;;;;;;21.51;81.08;98537.78;4257509;81;21023;-86
2022/08/18 21:32:44;;;;;;;14.05;10.70;;;;;;;21.43;81.43;98547.65;4287777;81;20999;-84
2022/08/18 21:38:52;;;;;;;13.10;10.85;;;;;;;21.37;81.68;98543.13;4287249;81;21071;-84
2022/08/18 21:44:57;;;;;;;13.78;10.95;;;;;;;21.29;82.01;98534.29;4288773;81;21035;-84
2022/08/18 21:51:00;;;;;;;15.55;11.12;;;;;;;21.23;82.51;98534.73;4293593;81;21046;-84
2022/08/18 21:57:26;;;;;;;19.50;10.58;;;;;;;21.18;83.40;98539.49;4288995;81;21036;-85
2022/08/18 22:03:28;;;;;;;14.07;10.00;;;;;;;21.25;84.35;98544.77;4287330;81;21070;-84
2022/08/18 22:15:53;;;;;;;13.72;10.10;;;;;;;21.31;85.18;98551.29;4281750;81;21097;-83
2022/08/18 22:24:18;;;;;;;15.35;11.55;;;;;;;21.31;85.46;98563.06;4289850;81;21101;-85
2022/08/18 22:28:08;;;;;;;14.23;10.43;;;;;;;21.24;85.26;98557.75;4261056;81;22120;-84
2022/08/18 22:34:23;;;;;;;13.85;11.38;;;;;;;21.09;85.71;98557.55;4236680;82;20986;-84
2022/08/18 22:40:25;;;;;;;16.30;12.03;;;;;;;20.92;85.94;98556.78;4241996;82;21102;-84
2022/08/18 22:46:28;;;;;;;14.50;11.88;;;;;;;20.85;86.33;98561.20;4245467;82;21728;-84
2022/08/18 22:52:34;;;;;;;16.20;11.93;;;;;;;20.77;86.61;98564.86;4240682;82;21002;-84
2022/08/18 22:58:36;;;;;;;18.12;12.47;;;;;;;20.67;86.93;98560.45;4243849;82;21098;-84
2022/08/18 23:04:37;;;;;;;15.65;12.95;;;;;;;20.53;87.29;98551.23;4238837;82;21035;-85
2022/08/18 23:10:38;;;;;;;17.52;13.32;;;;;;;20.37;87.49;98547.27;4244191;82;21082;-84
2022/08/18 23:16:44;;;;;;;16.82;11.20;;;;;;;20.28;88.14;98545.77;4244817;82;22235;-84
2022/08/18 23:22:44;;;;;;;16.50;12.10;;;;;;;20.27;88.85;98550.39;4239026;82;21090;-84
2022/08/18 23:28:45;;;;;;;13.32;11.35;;;;;;;20.18;89.38;98553.28;4238088;82;21044;-84
2022/08/18 23:34:47;;;;;;;17.23;14.15;;;;;;;20.24;89.73;98554.86;4241989;82;21035;-86
2022/08/18 23:40:50;;;;;;;22.52;15.13;;;;;;;20.19;89.74;98547.88;4242019;82;21578;-85
2022/08/18 23:46:52;;;;;;;20.62;14.05;;;;;;;20.11;89.97;98549.91;4240930;82;21101;-84
2022/08/18 23:52:57;;;;;;;15.65;13.03;;;;;;;20.00;90.35;98545.32;4239565;82;21957;-84
2022/08/18 23:58:59;;;;;;;16.12;12.70;;;;;;;19.97;90.90;98551.17;4214539;82;21035;-83
